Strona główna
METAR-TAF:

METAR-TAF

Lotnisko :

Passo Fundo, Rio Grande do Sul, Brazylia

Szerokość geograficzna: 28-15S, Długość geograficzna: 052-24W, wysokość: 684 m

Aktualna obserwacja pogody

Raport powstał 8 godziny i 16 minut temu, godzina 15:00 UTC
Wiatr 16 kt od północno-północny wschód
Temperatura 23°C
Wilgotność 57%
Ciśnienie 1015 hPa
Widzialność 10 km lub więcej
Brak chmur poniżej 1500 m i brak chmur cumulonimbus

METAR: SBPF 171500Z 02016KT CAVOK 23/14 Q1015

czas: 20:16 (23:16 UTC)


TAF: brakujący

Obserwacja i prognoza pogody dla ponad 4000 lotnisk (raport METAR i TAF).

Dostępne stacje oznaczono żółtymi i czerwonymi punktami na mapie.

Najedź kursorem aby zobaczyć nazwę stacji.

Kliknij aby zobaczyć obserwacje i prognozy pogody.

Aby zmienić mapę: kliknij na zielony przycisk z czarnym krzyżykiem, aby powiększyć; na zielony przycisk z myślnikiem, aby pomniejszyć; na zielone strzałki, aby przejść do map sąsiednich.


METAR-TAF: